BAW730 EGLL-EBBR
Flight info
| Callsign | BAW730 |
|---|---|
| Flight time | 0h 38m |
| Altitude | 23000 |
| Route | DET Q70 KOK |
| Aircraft | A319/M-SDE3FGHIRWY/LB1 |
Departure
| Time | 2026-05-08 05:50 |
|---|---|
| Airport | London Heathrow Airport (EGLL) |
Arrival
| Time | 2026-05-08 06:28 |
|---|---|
| Airport | Brussels Airport (EBBR) |
| Time | Latitude | Longitude | Altitude | Speed | Heading |
|---|---|---|---|---|---|
| 2026-05-08 05:32 | 51.46826 | -0.45115 | 89 ft | 0 kts | 360° |
| 2026-05-08 05:41 | 51.46824 | -0.45115 | 87 ft | 2 kts | 360° |
| 2026-05-08 05:41 | 51.46799 | -0.45115 | 87 ft | 4 kts | 360° |
| 2026-05-08 05:41 | 51.46772 | -0.45115 | 87 ft | 4 kts | 349° |
| 2026-05-08 05:41 | 51.46753 | -0.45098 | 87 ft | 4 kts | 288° |
| 2026-05-08 05:42 | 51.46750 | -0.45076 | 91 ft | 0 kts | 270° |
| 2026-05-08 05:44 | 51.46750 | -0.45099 | 87 ft | 5 kts | 270° |
| 2026-05-08 05:45 | 51.46750 | -0.45185 | 87 ft | 10 kts | 270° |
| 2026-05-08 05:45 | 51.46750 | -0.45310 | 87 ft | 11 kts | 269° |
| 2026-05-08 05:45 | 51.46713 | -0.45390 | 87 ft | 9 kts | 189° |
| 2026-05-08 05:45 | 51.46661 | -0.45454 | 87 ft | 12 kts | 257° |
| 2026-05-08 05:46 | 51.46661 | -0.45586 | 87 ft | 13 kts | 270° |
| 2026-05-08 05:46 | 51.46661 | -0.45756 | 87 ft | 17 kts | 270° |
| 2026-05-08 05:46 | 51.46662 | -0.45968 | 87 ft | 20 kts | 270° |
| 2026-05-08 05:46 | 51.46660 | -0.46198 | 87 ft | 22 kts | 270° |
| 2026-05-08 05:47 | 51.46659 | -0.46460 | 87 ft | 25 kts | 269° |
| 2026-05-08 05:47 | 51.46657 | -0.46756 | 87 ft | 28 kts | 269° |
| 2026-05-08 05:47 | 51.46656 | -0.47063 | 87 ft | 24 kts | 269° |
| 2026-05-08 05:47 | 51.46655 | -0.47312 | 87 ft | 23 kts | 270° |
| 2026-05-08 05:48 | 51.46655 | -0.47591 | 87 ft | 27 kts | 270° |
| 2026-05-08 05:48 | 51.46653 | -0.47903 | 87 ft | 27 kts | 270° |
| 2026-05-08 05:48 | 51.46652 | -0.48128 | 87 ft | 17 kts | 269° |
| 2026-05-08 05:48 | 51.46611 | -0.48215 | 89 ft | 7 kts | 182° |
| 2026-05-08 05:49 | 51.46552 | -0.48215 | 88 ft | 10 kts | 180° |
| 2026-05-08 05:49 | 51.46486 | -0.48204 | 91 ft | 8 kts | 143° |
| 2026-05-08 05:49 | 51.46479 | -0.48111 | 88 ft | 9 kts | 89° |
| 2026-05-08 05:49 | 51.46479 | -0.47794 | 87 ft | 64 kts | 90° |
| 2026-05-08 05:50 | 51.46485 | -0.46643 | 97 ft | 140 kts | 89° |
| 2026-05-08 05:50 | 51.46488 | -0.45035 | 744 ft | 144 kts | 90° |
| 2026-05-08 05:50 | 51.46496 | -0.43419 | 1514 ft | 147 kts | 92° |
| 2026-05-08 05:50 | 51.46414 | -0.41652 | 1834 ft | 172 kts | 110° |
| 2026-05-08 05:51 | 51.45698 | -0.39946 | 2154 ft | 200 kts | 130° |
| 2026-05-08 05:51 | 51.44815 | -0.38001 | 2657 ft | 229 kts | 125° |
| 2026-05-08 05:51 | 51.43940 | -0.35731 | 3450 ft | 249 kts | 122° |
| 2026-05-08 05:51 | 51.43252 | -0.33141 | 4446 ft | 259 kts | 107° |
| 2026-05-08 05:52 | 51.42840 | -0.30302 | 5486 ft | 265 kts | 103° |
| 2026-05-08 05:52 | 51.42479 | -0.27395 | 6599 ft | 268 kts | 102° |
| 2026-05-08 05:52 | 51.42129 | -0.24433 | 7575 ft | 274 kts | 102° |
| 2026-05-08 05:52 | 51.41765 | -0.21401 | 8534 ft | 281 kts | 102° |
| 2026-05-08 05:53 | 51.41374 | -0.18293 | 9462 ft | 288 kts | 103° |
| 2026-05-08 05:53 | 51.40957 | -0.15100 | 10317 ft | 299 kts | 103° |
| 2026-05-08 05:53 | 51.40503 | -0.11726 | 10721 ft | 322 kts | 104° |
| 2026-05-08 05:53 | 51.40014 | -0.08155 | 11415 ft | 332 kts | 104° |
| 2026-05-08 05:54 | 51.39511 | -0.04524 | 12255 ft | 337 kts | 104° |
| 2026-05-08 05:54 | 51.38992 | -0.00840 | 13115 ft | 341 kts | 104° |
| 2026-05-08 05:54 | 51.38469 | 0.02885 | 13968 ft | 345 kts | 104° |
| 2026-05-08 05:54 | 51.37949 | 0.06596 | 14723 ft | 348 kts | 104° |
| 2026-05-08 05:55 | 51.37418 | 0.10395 | 15489 ft | 351 kts | 104° |
| 2026-05-08 05:55 | 51.36883 | 0.14219 | 16256 ft | 354 kts | 104° |
| 2026-05-08 05:55 | 51.36340 | 0.18085 | 17024 ft | 357 kts | 105° |
| 2026-05-08 05:55 | 51.35793 | 0.21975 | 17792 ft | 360 kts | 105° |
| 2026-05-08 05:56 | 51.35239 | 0.25903 | 18528 ft | 363 kts | 105° |
| 2026-05-08 05:56 | 51.34679 | 0.29861 | 19163 ft | 367 kts | 105° |
| 2026-05-08 05:56 | 51.34112 | 0.33862 | 19809 ft | 371 kts | 105° |
| 2026-05-08 05:56 | 51.33532 | 0.37912 | 20450 ft | 375 kts | 105° |
| 2026-05-08 05:57 | 51.32945 | 0.42002 | 21083 ft | 379 kts | 105° |
| 2026-05-08 05:57 | 51.32352 | 0.46128 | 21545 ft | 383 kts | 105° |
| 2026-05-08 05:57 | 51.31754 | 0.50297 | 22148 ft | 387 kts | 105° |
| 2026-05-08 05:57 | 51.31149 | 0.54508 | 22737 ft | 391 kts | 105° |
| 2026-05-08 05:58 | 51.30548 | 0.58761 | 22912 ft | 392 kts | 103° |
| 2026-05-08 05:58 | 51.30280 | 0.63019 | 22960 ft | 379 kts | 95° |
| 2026-05-08 05:58 | 51.30143 | 0.67150 | 22973 ft | 368 kts | 95° |
| 2026-05-08 05:58 | 51.30002 | 0.71219 | 22989 ft | 365 kts | 95° |
| 2026-05-08 05:59 | 51.29857 | 0.75263 | 23003 ft | 364 kts | 95° |
| 2026-05-08 05:59 | 51.29708 | 0.79310 | 23018 ft | 364 kts | 95° |
| 2026-05-08 05:59 | 51.29557 | 0.83352 | 23035 ft | 364 kts | 95° |
| 2026-05-08 05:59 | 51.29406 | 0.87387 | 23051 ft | 364 kts | 95° |
| 2026-05-08 06:00 | 51.29254 | 0.91426 | 23070 ft | 364 kts | 95° |
| 2026-05-08 06:00 | 51.29098 | 0.95466 | 23088 ft | 364 kts | 96° |
| 2026-05-08 06:00 | 51.28938 | 0.99499 | 23097 ft | 364 kts | 96° |
| 2026-05-08 06:00 | 51.28778 | 1.03526 | 23098 ft | 364 kts | 96° |
| 2026-05-08 06:01 | 51.28622 | 1.07513 | 23101 ft | 363 kts | 96° |
| 2026-05-08 06:01 | 51.28463 | 1.11601 | 23101 ft | 363 kts | 95° |
| 2026-05-08 06:01 | 51.28310 | 1.15623 | 23101 ft | 363 kts | 95° |
| 2026-05-08 06:01 | 51.28158 | 1.19603 | 23101 ft | 363 kts | 96° |
| 2026-05-08 06:02 | 51.27999 | 1.23630 | 23104 ft | 363 kts | 96° |
| 2026-05-08 06:02 | 51.27835 | 1.27654 | 23104 ft | 363 kts | 96° |
| 2026-05-08 06:02 | 51.27667 | 1.31680 | 23105 ft | 363 kts | 96° |
| 2026-05-08 06:02 | 51.27497 | 1.35712 | 23103 ft | 363 kts | 96° |
| 2026-05-08 06:03 | 51.27325 | 1.39726 | 23103 ft | 363 kts | 96° |
| 2026-05-08 06:03 | 51.27153 | 1.43755 | 23088 ft | 363 kts | 96° |
| 2026-05-08 06:03 | 51.26979 | 1.47787 | 23086 ft | 363 kts | 96° |
| 2026-05-08 06:03 | 51.26807 | 1.51814 | 23086 ft | 364 kts | 96° |
| 2026-05-08 06:04 | 51.26636 | 1.55843 | 23083 ft | 364 kts | 96° |
| 2026-05-08 06:04 | 51.26463 | 1.59870 | 23084 ft | 364 kts | 96° |
| 2026-05-08 06:04 | 51.26290 | 1.63898 | 23084 ft | 364 kts | 96° |
| 2026-05-08 06:04 | 51.26116 | 1.67928 | 23085 ft | 364 kts | 96° |
| 2026-05-08 06:05 | 51.25941 | 1.71955 | 23087 ft | 364 kts | 96° |
| 2026-05-08 06:05 | 51.25763 | 1.75988 | 23087 ft | 364 kts | 96° |
| 2026-05-08 06:05 | 51.25644 | 1.78653 | 23087 ft | 364 kts | 96° |
| 2026-05-08 06:05 | 51.25460 | 1.82681 | 23087 ft | 364 kts | 96° |
| 2026-05-08 06:06 | 51.25271 | 1.86714 | 23086 ft | 364 kts | 96° |
| 2026-05-08 06:06 | 51.25080 | 1.90745 | 23075 ft | 364 kts | 96° |
| 2026-05-08 06:06 | 51.24887 | 1.94770 | 23080 ft | 364 kts | 96° |
| 2026-05-08 06:06 | 51.24696 | 1.98795 | 23084 ft | 364 kts | 96° |
| 2026-05-08 06:07 | 51.24508 | 2.02822 | 23095 ft | 364 kts | 96° |
| 2026-05-08 06:07 | 51.24322 | 2.06843 | 23097 ft | 364 kts | 96° |
| 2026-05-08 06:07 | 51.24134 | 2.10866 | 23095 ft | 363 kts | 96° |
| 2026-05-08 06:07 | 51.23941 | 2.14889 | 23092 ft | 363 kts | 96° |
| 2026-05-08 06:08 | 51.23748 | 2.18909 | 23091 ft | 363 kts | 96° |
| 2026-05-08 06:08 | 51.23554 | 2.22926 | 23088 ft | 363 kts | 96° |
| 2026-05-08 06:08 | 51.23356 | 2.26943 | 23089 ft | 363 kts | 96° |
| 2026-05-08 06:08 | 51.23158 | 2.30965 | 23090 ft | 363 kts | 96° |
| 2026-05-08 06:09 | 51.22949 | 2.34976 | 23087 ft | 363 kts | 99° |
| 2026-05-08 06:09 | 51.22410 | 2.38884 | 23070 ft | 360 kts | 111° |
| 2026-05-08 06:09 | 51.21400 | 2.42517 | 23073 ft | 357 kts | 122° |
| 2026-05-08 06:09 | 51.19980 | 2.45736 | 23063 ft | 354 kts | 133° |
| 2026-05-08 06:10 | 51.18380 | 2.48697 | 22721 ft | 351 kts | 133° |
| 2026-05-08 06:10 | 51.16793 | 2.51632 | 22305 ft | 348 kts | 133° |
| 2026-05-08 06:10 | 51.15240 | 2.54509 | 21901 ft | 345 kts | 133° |
| 2026-05-08 06:10 | 51.13684 | 2.57389 | 21494 ft | 342 kts | 133° |
| 2026-05-08 06:11 | 51.12136 | 2.60253 | 21090 ft | 339 kts | 133° |
| 2026-05-08 06:11 | 51.10653 | 2.63142 | 20696 ft | 337 kts | 127° |
| 2026-05-08 06:11 | 51.09538 | 2.66427 | 20282 ft | 338 kts | 114° |
| 2026-05-08 06:11 | 51.08892 | 2.70020 | 19878 ft | 338 kts | 102° |
| 2026-05-08 06:12 | 51.08464 | 2.73694 | 19470 ft | 337 kts | 102° |
| 2026-05-08 06:12 | 51.08030 | 2.77342 | 19068 ft | 335 kts | 102° |
| 2026-05-08 06:12 | 51.07592 | 2.80977 | 18664 ft | 334 kts | 103° |
| 2026-05-08 06:12 | 51.07154 | 2.84592 | 18271 ft | 333 kts | 102° |
| 2026-05-08 06:13 | 51.06715 | 2.88194 | 17847 ft | 331 kts | 102° |
| 2026-05-08 06:13 | 51.06279 | 2.91770 | 17448 ft | 328 kts | 102° |
| 2026-05-08 06:13 | 51.05847 | 2.95321 | 17052 ft | 326 kts | 102° |
| 2026-05-08 06:13 | 51.05417 | 2.98847 | 16657 ft | 324 kts | 102° |
| 2026-05-08 06:14 | 51.04989 | 3.02345 | 16264 ft | 322 kts | 102° |
| 2026-05-08 06:14 | 51.04559 | 3.05843 | 15870 ft | 321 kts | 102° |
| 2026-05-08 06:14 | 51.04140 | 3.09268 | 15489 ft | 319 kts | 102° |
| 2026-05-08 06:14 | 51.03717 | 3.12718 | 15107 ft | 318 kts | 102° |
| 2026-05-08 06:15 | 51.03290 | 3.16164 | 14720 ft | 317 kts | 102° |
| 2026-05-08 06:15 | 51.02866 | 3.19588 | 14336 ft | 316 kts | 102° |
| 2026-05-08 06:15 | 51.02442 | 3.23009 | 13950 ft | 315 kts | 102° |
| 2026-05-08 06:15 | 51.02020 | 3.26406 | 13533 ft | 313 kts | 102° |
| 2026-05-08 06:16 | 51.01599 | 3.29790 | 13143 ft | 311 kts | 102° |
| 2026-05-08 06:16 | 51.01181 | 3.33144 | 12762 ft | 308 kts | 102° |
| 2026-05-08 06:16 | 51.00765 | 3.36469 | 12385 ft | 306 kts | 102° |
| 2026-05-08 06:16 | 51.00350 | 3.39774 | 12008 ft | 304 kts | 102° |
| 2026-05-08 06:17 | 50.99522 | 3.46318 | 11265 ft | 300 kts | 102° |
| 2026-05-08 06:17 | 50.99109 | 3.49562 | 10889 ft | 299 kts | 102° |
| 2026-05-08 06:17 | 50.98698 | 3.52786 | 10523 ft | 297 kts | 102° |
| 2026-05-08 06:18 | 50.98291 | 3.55994 | 10161 ft | 296 kts | 102° |
| 2026-05-08 06:18 | 50.97890 | 3.59161 | 9964 ft | 288 kts | 102° |
| 2026-05-08 06:18 | 50.97499 | 3.62238 | 9588 ft | 282 kts | 103° |
| 2026-05-08 06:18 | 50.97104 | 3.65299 | 9093 ft | 285 kts | 103° |
| 2026-05-08 06:19 | 50.96710 | 3.68350 | 8837 ft | 279 kts | 102° |
| 2026-05-08 06:19 | 50.96321 | 3.71373 | 8436 ft | 279 kts | 102° |
| 2026-05-08 06:19 | 50.95936 | 3.74368 | 8070 ft | 278 kts | 102° |
| 2026-05-08 06:19 | 50.95554 | 3.77332 | 7706 ft | 270 kts | 102° |
| 2026-05-08 06:20 | 50.95184 | 3.80208 | 7333 ft | 264 kts | 102° |
| 2026-05-08 06:20 | 50.94820 | 3.83019 | 7051 ft | 254 kts | 102° |
| 2026-05-08 06:20 | 50.94468 | 3.85732 | 6705 ft | 250 kts | 102° |
| 2026-05-08 06:20 | 50.94114 | 3.88443 | 6356 ft | 252 kts | 102° |
| 2026-05-08 06:21 | 50.93761 | 3.91133 | 6130 ft | 247 kts | 102° |
| 2026-05-08 06:21 | 50.93411 | 3.93791 | 5790 ft | 248 kts | 102° |
| 2026-05-08 06:21 | 50.93062 | 3.96449 | 5468 ft | 247 kts | 102° |
| 2026-05-08 06:21 | 50.92708 | 3.99127 | 5258 ft | 241 kts | 102° |
| 2026-05-08 06:22 | 50.92373 | 4.01678 | 5128 ft | 232 kts | 102° |
| 2026-05-08 06:22 | 50.92053 | 4.04112 | 4955 ft | 226 kts | 102° |
| 2026-05-08 06:22 | 50.91736 | 4.06520 | 4550 ft | 223 kts | 102° |
| 2026-05-08 06:22 | 50.91420 | 4.08922 | 4073 ft | 222 kts | 102° |
| 2026-05-08 06:23 | 50.91014 | 4.11264 | 3612 ft | 220 kts | 113° |
| 2026-05-08 06:23 | 50.90261 | 4.13358 | 3264 ft | 220 kts | 127° |
| 2026-05-08 06:23 | 50.89195 | 4.15089 | 2925 ft | 220 kts | 142° |
| 2026-05-08 06:23 | 50.87960 | 4.16499 | 2710 ft | 215 kts | 137° |
| 2026-05-08 06:24 | 50.87092 | 4.18315 | 2572 ft | 202 kts | 116° |
| 2026-05-08 06:24 | 50.86680 | 4.20392 | 2472 ft | 196 kts | 98° |
| 2026-05-08 06:24 | 50.86694 | 4.22530 | 2387 ft | 192 kts | 81° |
| 2026-05-08 06:24 | 50.86940 | 4.24559 | 2330 ft | 186 kts | 80° |
| 2026-05-08 06:25 | 50.87171 | 4.26559 | 2212 ft | 184 kts | 80° |
| 2026-05-08 06:25 | 50.87395 | 4.28545 | 2131 ft | 183 kts | 81° |
| 2026-05-08 06:25 | 50.87618 | 4.30523 | 2043 ft | 181 kts | 81° |
| 2026-05-08 06:25 | 50.87832 | 4.32410 | 1918 ft | 168 kts | 81° |
| 2026-05-08 06:26 | 50.88033 | 4.34184 | 1673 ft | 158 kts | 80° |
| 2026-05-08 06:26 | 50.88220 | 4.35834 | 1458 ft | 146 kts | 80° |
| 2026-05-08 06:26 | 50.88394 | 4.37369 | 1273 ft | 138 kts | 80° |
| 2026-05-08 06:26 | 50.88560 | 4.38840 | 1085 ft | 134 kts | 80° |
| 2026-05-08 06:27 | 50.88728 | 4.40286 | 889 ft | 133 kts | 79° |
| 2026-05-08 06:27 | 50.88928 | 4.41712 | 745 ft | 133 kts | 77° |
| 2026-05-08 06:27 | 50.89194 | 4.43118 | 570 ft | 133 kts | 69° |
| 2026-05-08 06:27 | 50.89572 | 4.44460 | 369 ft | 133 kts | 65° |
| 2026-05-08 06:28 | 50.89957 | 4.45790 | 219 ft | 133 kts | 65° |
| 2026-05-08 06:28 | 50.90331 | 4.47086 | 126 ft | 122 kts | 65° |
| 2026-05-08 06:28 | 50.90619 | 4.48079 | 119 ft | 76 kts | 65° |
| 2026-05-08 06:28 | 50.90771 | 4.48605 | 120 ft | 37 kts | 66° |
| 2026-05-08 06:29 | 50.90884 | 4.48999 | 120 ft | 42 kts | 65° |
| 2026-05-08 06:29 | 50.90976 | 4.49392 | 119 ft | 28 kts | 83° |
| 2026-05-08 06:29 | 50.90966 | 4.49647 | 120 ft | 9 kts | 123° |
| 2026-05-08 06:29 | 50.90948 | 4.49674 | 123 ft | 0 kts | 143° |
| 2026-05-08 06:30 | 50.90948 | 4.49675 | 123 ft | 0 kts | 143° |
| 2026-05-08 06:30 | 50.90927 | 4.49678 | 120 ft | 6 kts | 193° |
| 2026-05-08 06:30 | 50.90871 | 4.49646 | 120 ft | 11 kts | 199° |
| 2026-05-08 06:30 | 50.90778 | 4.49607 | 124 ft | 16 kts | 194° |
| 2026-05-08 06:31 | 50.90659 | 4.49558 | 123 ft | 19 kts | 193° |
| 2026-05-08 06:31 | 50.90516 | 4.49500 | 122 ft | 23 kts | 194° |
| 2026-05-08 06:31 | 50.90357 | 4.49435 | 122 ft | 26 kts | 194° |
| 2026-05-08 06:31 | 50.90173 | 4.49360 | 129 ft | 28 kts | 194° |
| 2026-05-08 06:32 | 50.90036 | 4.49306 | 131 ft | 17 kts | 193° |
| 2026-05-08 06:32 | 50.89964 | 4.49181 | 135 ft | 15 kts | 249° |
| 2026-05-08 06:32 | 50.89917 | 4.49017 | 136 ft | 18 kts | 245° |
| 2026-05-08 06:32 | 50.89874 | 4.48866 | 136 ft | 12 kts | 245° |
| 2026-05-08 06:33 | 50.89877 | 4.48783 | 135 ft | 7 kts | 328° |
| 2026-05-08 06:33 | 50.89925 | 4.48751 | 132 ft | 6 kts | 335° |
| 2026-05-08 06:33 | 50.89955 | 4.48729 | 128 ft | 1 kts | 336° |
| 2026-05-08 06:33 | 50.89957 | 4.48728 | 128 ft | 0 kts | 336° |